sensor_id;sensor_type;location;lat;lon;timestamp;temperature;humidity
12276;DHT22;6200;48.144;11.424;2022-11-20T00:01:12;6.60;99.90
12276;DHT22;6200;48.144;11.424;2022-11-20T00:03:38;6.60;99.90
12276;DHT22;6200;48.144;11.424;2022-11-20T00:06:06;6.60;99.90
12276;DHT22;6200;48.144;11.424;2022-11-20T00:08:32;6.60;99.90
12276;DHT22;6200;48.144;11.424;2022-11-20T00:11:01;6.60;99.90
12276;DHT22;6200;48.144;11.424;2022-11-20T00:13:27;6.60;99.90
12276;DHT22;6200;48.144;11.424;2022-11-20T00:16:00;6.60;99.90
12276;DHT22;6200;48.144;11.424;2022-11-20T00:18:27;6.60;99.90
12276;DHT22;6200;48.144;11.424;2022-11-20T00:20:52;6.60;99.90
12276;DHT22;6200;48.144;11.424;2022-11-20T00:23:18;6.60;99.90
12276;DHT22;6200;48.144;11.424;2022-11-20T00:25:44;6.60;99.90
12276;DHT22;6200;48.144;11.424;2022-11-20T00:28:09;6.60;99.90
12276;DHT22;6200;48.144;11.424;2022-11-20T00:30:35;6.70;99.90
12276;DHT22;6200;48.144;11.424;2022-11-20T00:33:00;6.70;99.90
12276;DHT22;6200;48.144;11.424;2022-11-20T00:35:26;6.70;99.90
12276;DHT22;6200;48.144;11.424;2022-11-20T00:37:51;6.60;99.90
12276;DHT22;6200;48.144;11.424;2022-11-20T00:40:17;6.60;99.90
12276;DHT22;6200;48.144;11.424;2022-11-20T00:42:42;6.60;99.90
12276;DHT22;6200;48.144;11.424;2022-11-20T00:45:08;6.60;99.90
12276;DHT22;6200;48.144;11.424;2022-11-20T00:47:33;6.70;99.90
12276;DHT22;6200;48.144;11.424;2022-11-20T00:49:59;6.60;99.90
12276;DHT22;6200;48.144;11.424;2022-11-20T00:52:24;6.60;99.90
12276;DHT22;6200;48.144;11.424;2022-11-20T00:54:50;6.60;99.90
12276;DHT22;6200;48.144;11.424;2022-11-20T00:57:15;6.60;99.90
12276;DHT22;6200;48.144;11.424;2022-11-20T00:59:41;6.70;99.90
12276;DHT22;6200;48.144;11.424;2022-11-20T01:02:06;6.60;99.90
12276;DHT22;6200;48.144;11.424;2022-11-20T01:04:32;6.60;99.90
12276;DHT22;6200;48.144;11.424;2022-11-20T01:06:57;6.60;99.90
12276;DHT22;6200;48.144;11.424;2022-11-20T01:09:23;6.60;99.90
12276;DHT22;6200;48.144;11.424;2022-11-20T01:11:49;6.60;99.90
12276;DHT22;6200;48.144;11.424;2022-11-20T01:14:19;6.60;99.90
12276;DHT22;6200;48.144;11.424;2022-11-20T01:16:49;6.60;99.90
12276;DHT22;6200;48.144;11.424;2022-11-20T01:19:20;6.60;99.90
12276;DHT22;6200;48.144;11.424;2022-11-20T01:21:48;6.60;99.90
12276;DHT22;6200;48.144;11.424;2022-11-20T01:24:16;6.60;99.90
12276;DHT22;6200;48.144;11.424;2022-11-20T01:26:43;6.60;99.90
12276;DHT22;6200;48.144;11.424;2022-11-20T01:29:14;6.60;99.90
12276;DHT22;6200;48.144;11.424;2022-11-20T01:31:40;6.60;99.90
12276;DHT22;6200;48.144;11.424;2022-11-20T01:34:09;6.60;99.90
12276;DHT22;6200;48.144;11.424;2022-11-20T01:36:37;6.60;99.90
12276;DHT22;6200;48.144;11.424;2022-11-20T01:39:05;6.60;99.90
12276;DHT22;6200;48.144;11.424;2022-11-20T01:41:33;6.60;99.90
12276;DHT22;6200;48.144;11.424;2022-11-20T01:44:20;6.70;99.90
12276;DHT22;6200;48.144;11.424;2022-11-20T01:46:56;6.70;99.90
12276;DHT22;6200;48.144;11.424;2022-11-20T01:50:28;6.70;99.90
12276;DHT22;6200;48.144;11.424;2022-11-20T01:52:39;6.70;99.90
12276;DHT22;6200;48.144;11.424;2022-11-20T01:55:17;6.60;99.90
12276;DHT22;6200;48.144;11.424;2022-11-20T01:57:44;6.70;99.90
12276;DHT22;6200;48.144;11.424;2022-11-20T02:00:13;6.70;99.90
12276;DHT22;6200;48.144;11.424;2022-11-20T02:02:42;6.70;99.90
12276;DHT22;6200;48.144;11.424;2022-11-20T02:08:08;6.70;99.90
12276;DHT22;6200;48.144;11.424;2022-11-20T02:10:34;6.70;99.90
12276;DHT22;6200;48.144;11.424;2022-11-20T02:13:00;6.70;99.90
12276;DHT22;6200;48.144;11.424;2022-11-20T02:15:45;6.70;99.90
12276;DHT22;6200;48.144;11.424;2022-11-20T02:18:14;6.70;99.90
12276;DHT22;6200;48.144;11.424;2022-11-20T02:20:42;6.70;99.90
12276;DHT22;6200;48.144;11.424;2022-11-20T02:23:16;6.70;99.90
12276;DHT22;6200;48.144;11.424;2022-11-20T02:25:43;6.70;99.90
12276;DHT22;6200;48.144;11.424;2022-11-20T02:28:10;6.70;99.90
12276;DHT22;6200;48.144;11.424;2022-11-20T02:30:35;6.70;99.90
12276;DHT22;6200;48.144;11.424;2022-11-20T02:33:01;6.70;99.90
12276;DHT22;6200;48.144;11.424;2022-11-20T02:37:54;6.60;99.90
12276;DHT22;6200;48.144;11.424;2022-11-20T02:40:21;6.60;99.90
12276;DHT22;6200;48.144;11.424;2022-11-20T02:42:47;6.60;99.90
12276;DHT22;6200;48.144;11.424;2022-11-20T02:45:13;6.60;99.90
12276;DHT22;6200;48.144;11.424;2022-11-20T02:47:39;6.60;99.90
12276;DHT22;6200;48.144;11.424;2022-11-20T02:50:05;6.60;99.90
12276;DHT22;6200;48.144;11.424;2022-11-20T02:52:31;6.70;99.90
12276;DHT22;6200;48.144;11.424;2022-11-20T02:54:56;6.60;99.90
12276;DHT22;6200;48.144;11.424;2022-11-20T02:57:22;6.60;99.90
12276;DHT22;6200;48.144;11.424;2022-11-20T02:59:47;6.60;99.90
12276;DHT22;6200;48.144;11.424;2022-11-20T03:02:13;6.60;99.90
12276;DHT22;6200;48.144;11.424;2022-11-20T03:04:39;6.60;99.90
12276;DHT22;6200;48.144;11.424;2022-11-20T03:07:04;6.60;99.90
12276;DHT22;6200;48.144;11.424;2022-11-20T03:09:30;6.60;99.90
12276;DHT22;6200;48.144;11.424;2022-11-20T03:11:56;6.60;99.90
12276;DHT22;6200;48.144;11.424;2022-11-20T03:14:21;6.60;99.90
12276;DHT22;6200;48.144;11.424;2022-11-20T03:16:47;6.60;99.90
12276;DHT22;6200;48.144;11.424;2022-11-20T03:19:12;6.60;99.90
12276;DHT22;6200;48.144;11.424;2022-11-20T03:21:38;6.60;99.90
12276;DHT22;6200;48.144;11.424;2022-11-20T03:24:04;6.60;99.90
12276;DHT22;6200;48.144;11.424;2022-11-20T03:26:29;6.60;99.90
12276;DHT22;6200;48.144;11.424;2022-11-20T03:28:57;6.60;99.90
12276;DHT22;6200;48.144;11.424;2022-11-20T03:31:26;6.60;99.90
12276;DHT22;6200;48.144;11.424;2022-11-20T03:33:52;6.60;99.90
12276;DHT22;6200;48.144;11.424;2022-11-20T03:36:19;6.60;99.90
12276;DHT22;6200;48.144;11.424;2022-11-20T03:38:45;6.70;99.90
12276;DHT22;6200;48.144;11.424;2022-11-20T03:41:13;6.70;99.90
12276;DHT22;6200;48.144;11.424;2022-11-20T03:43:39;6.60;99.90
12276;DHT22;6200;48.144;11.424;2022-11-20T03:46:06;6.60;99.90
12276;DHT22;6200;48.144;11.424;2022-11-20T03:48:31;6.60;99.90
12276;DHT22;6200;48.144;11.424;2022-11-20T03:51:33;6.60;99.90
12276;DHT22;6200;48.144;11.424;2022-11-20T03:54:00;6.60;99.90
12276;DHT22;6200;48.144;11.424;2022-11-20T03:56:31;6.60;99.90
12276;DHT22;6200;48.144;11.424;2022-11-20T03:58:57;6.60;99.90
12276;DHT22;6200;48.144;11.424;2022-11-20T04:01:25;6.60;99.90
12276;DHT22;6200;48.144;11.424;2022-11-20T04:03:52;6.60;99.90
12276;DHT22;6200;48.144;11.424;2022-11-20T04:06:21;6.60;99.90
12276;DHT22;6200;48.144;11.424;2022-11-20T04:08:47;6.60;99.90
12276;DHT22;6200;48.144;11.424;2022-11-20T04:11:15;6.60;99.90
12276;DHT22;6200;48.144;11.424;2022-11-20T04:13:42;6.60;99.90
12276;DHT22;6200;48.144;11.424;2022-11-20T04:16:09;6.60;99.90
12276;DHT22;6200;48.144;11.424;2022-11-20T04:18:35;6.60;99.90
12276;DHT22;6200;48.144;11.424;2022-11-20T04:21:02;6.60;99.90
12276;DHT22;6200;48.144;11.424;2022-11-20T04:23:27;6.60;99.90
12276;DHT22;6200;48.144;11.424;2022-11-20T04:25:53;6.60;99.90
12276;DHT22;6200;48.144;11.424;2022-11-20T04:28:19;6.60;99.90
12276;DHT22;6200;48.144;11.424;2022-11-20T04:30:45;6.50;99.90
12276;DHT22;6200;48.144;11.424;2022-11-20T04:33:10;6.50;99.90
12276;DHT22;6200;48.144;11.424;2022-11-20T04:35:37;6.50;99.90
12276;DHT22;6200;48.144;11.424;2022-11-20T04:38:03;6.50;99.90
12276;DHT22;6200;48.144;11.424;2022-11-20T04:40:29;6.60;99.90
12276;DHT22;6200;48.144;11.424;2022-11-20T04:42:55;6.50;99.90
12276;DHT22;6200;48.144;11.424;2022-11-20T04:45:22;6.60;99.90
12276;DHT22;6200;48.144;11.424;2022-11-20T04:47:48;6.60;99.90
12276;DHT22;6200;48.144;11.424;2022-11-20T04:50:14;6.60;99.90
12276;DHT22;6200;48.144;11.424;2022-11-20T04:52:39;6.60;99.90
12276;DHT22;6200;48.144;11.424;2022-11-20T04:55:05;6.50;99.90
12276;DHT22;6200;48.144;11.424;2022-11-20T04:57:31;6.50;99.90
12276;DHT22;6200;48.144;11.424;2022-11-20T04:59:56;6.50;99.90
12276;DHT22;6200;48.144;11.424;2022-11-20T05:02:22;6.50;99.90
12276;DHT22;6200;48.144;11.424;2022-11-20T05:04:47;6.50;99.90
12276;DHT22;6200;48.144;11.424;2022-11-20T05:07:13;6.50;99.90
12276;DHT22;6200;48.144;11.424;2022-11-20T05:09:39;6.50;99.90
12276;DHT22;6200;48.144;11.424;2022-11-20T05:12:06;6.50;99.90
12276;DHT22;6200;48.144;11.424;2022-11-20T05:14:32;6.50;99.90
12276;DHT22;6200;48.144;11.424;2022-11-20T05:16:57;6.50;99.90
12276;DHT22;6200;48.144;11.424;2022-11-20T05:19:23;6.50;99.90
12276;DHT22;6200;48.144;11.424;2022-11-20T05:21:48;6.50;99.90
12276;DHT22;6200;48.144;11.424;2022-11-20T05:24:14;6.50;99.90
12276;DHT22;6200;48.144;11.424;2022-11-20T05:26:39;6.50;99.90
12276;DHT22;6200;48.144;11.424;2022-11-20T05:29:05;6.50;99.90
12276;DHT22;6200;48.144;11.424;2022-11-20T05:31:30;6.50;99.90
12276;DHT22;6200;48.144;11.424;2022-11-20T05:33:57;6.50;99.90
12276;DHT22;6200;48.144;11.424;2022-11-20T05:36:23;6.50;99.90
12276;DHT22;6200;48.144;11.424;2022-11-20T05:38:48;6.50;99.90
12276;DHT22;6200;48.144;11.424;2022-11-20T05:41:16;6.50;99.90
12276;DHT22;6200;48.144;11.424;2022-11-20T05:43:44;6.40;99.90
12276;DHT22;6200;48.144;11.424;2022-11-20T05:46:12;6.40;99.90
12276;DHT22;6200;48.144;11.424;2022-11-20T05:48:38;6.50;99.90
12276;DHT22;6200;48.144;11.424;2022-11-20T05:51:06;6.50;99.90
12276;DHT22;6200;48.144;11.424;2022-11-20T05:53:33;6.50;99.90
12276;DHT22;6200;48.144;11.424;2022-11-20T05:56:07;6.50;99.90
12276;DHT22;6200;48.144;11.424;2022-11-20T05:58:33;6.40;99.90
12276;DHT22;6200;48.144;11.424;2022-11-20T06:01:06;6.40;99.90
12276;DHT22;6200;48.144;11.424;2022-11-20T06:03:32;6.40;99.90
12276;DHT22;6200;48.144;11.424;2022-11-20T06:05:59;6.40;99.90
12276;DHT22;6200;48.144;11.424;2022-11-20T06:08:25;6.40;99.90
12276;DHT22;6200;48.144;11.424;2022-11-20T06:10:50;6.40;99.90
12276;DHT22;6200;48.144;11.424;2022-11-20T06:13:16;6.40;99.90
12276;DHT22;6200;48.144;11.424;2022-11-20T06:15:41;6.30;99.90
12276;DHT22;6200;48.144;11.424;2022-11-20T06:18:07;6.30;99.90
12276;DHT22;6200;48.144;11.424;2022-11-20T06:20:32;6.30;99.90
12276;DHT22;6200;48.144;11.424;2022-11-20T06:22:58;6.20;99.90
12276;DHT22;6200;48.144;11.424;2022-11-20T06:25:23;6.20;99.90
12276;DHT22;6200;48.144;11.424;2022-11-20T06:27:49;6.20;99.90
12276;DHT22;6200;48.144;11.424;2022-11-20T06:30:15;6.20;99.90
12276;DHT22;6200;48.144;11.424;2022-11-20T06:32:40;6.20;99.90
12276;DHT22;6200;48.144;11.424;2022-11-20T06:35:06;6.10;99.90
12276;DHT22;6200;48.144;11.424;2022-11-20T06:37:31;6.10;99.90
12276;DHT22;6200;48.144;11.424;2022-11-20T06:39:57;6.10;99.90
12276;DHT22;6200;48.144;11.424;2022-11-20T06:42:22;6.10;99.90
12276;DHT22;6200;48.144;11.424;2022-11-20T06:44:48;6.20;99.90
12276;DHT22;6200;48.144;11.424;2022-11-20T06:47:13;6.20;99.90
12276;DHT22;6200;48.144;11.424;2022-11-20T06:49:39;6.20;99.90
12276;DHT22;6200;48.144;11.424;2022-11-20T06:52:05;6.20;99.90
12276;DHT22;6200;48.144;11.424;2022-11-20T06:54:30;6.20;99.90
12276;DHT22;6200;48.144;11.424;2022-11-20T06:56:56;6.20;99.90
12276;DHT22;6200;48.144;11.424;2022-11-20T06:59:21;6.20;99.90
12276;DHT22;6200;48.144;11.424;2022-11-20T07:01:47;6.30;99.90
12276;DHT22;6200;48.144;11.424;2022-11-20T07:04:12;6.30;99.90
12276;DHT22;6200;48.144;11.424;2022-11-20T07:06:38;6.30;99.90
12276;DHT22;6200;48.144;11.424;2022-11-20T07:09:03;6.30;99.90
12276;DHT22;6200;48.144;11.424;2022-11-20T07:11:29;6.30;99.90
12276;DHT22;6200;48.144;11.424;2022-11-20T07:13:56;6.30;99.90
12276;DHT22;6200;48.144;11.424;2022-11-20T07:16:22;6.20;99.90
12276;DHT22;6200;48.144;11.424;2022-11-20T07:18:47;6.40;99.90
12276;DHT22;6200;48.144;11.424;2022-11-20T07:21:13;6.40;99.90
12276;DHT22;6200;48.144;11.424;2022-11-20T07:23:38;6.40;99.90
12276;DHT22;6200;48.144;11.424;2022-11-20T07:26:05;6.40;99.90
12276;DHT22;6200;48.144;11.424;2022-11-20T07:28:31;6.50;99.90
12276;DHT22;6200;48.144;11.424;2022-11-20T07:30:57;6.50;99.90
12276;DHT22;6200;48.144;11.424;2022-11-20T07:33:23;6.50;99.90
12276;DHT22;6200;48.144;11.424;2022-11-20T07:35:48;6.50;99.90
12276;DHT22;6200;48.144;11.424;2022-11-20T07:38:14;6.50;99.90
12276;DHT22;6200;48.144;11.424;2022-11-20T07:40:39;6.50;99.90
12276;DHT22;6200;48.144;11.424;2022-11-20T07:43:05;6.50;99.90
12276;DHT22;6200;48.144;11.424;2022-11-20T07:45:30;6.50;99.90
12276;DHT22;6200;48.144;11.424;2022-11-20T07:47:56;6.60;99.90
12276;DHT22;6200;48.144;11.424;2022-11-20T07:50:21;6.60;99.90
12276;DHT22;6200;48.144;11.424;2022-11-20T07:52:47;6.60;99.90
12276;DHT22;6200;48.144;11.424;2022-11-20T07:55:13;6.70;99.90
12276;DHT22;6200;48.144;11.424;2022-11-20T07:57:39;6.70;99.90
12276;DHT22;6200;48.144;11.424;2022-11-20T08:00:06;6.70;99.90
12276;DHT22;6200;48.144;11.424;2022-11-20T08:02:36;6.70;99.90
12276;DHT22;6200;48.144;11.424;2022-11-20T08:05:02;6.70;99.90
12276;DHT22;6200;48.144;11.424;2022-11-20T08:07:27;6.70;99.90
12276;DHT22;6200;48.144;11.424;2022-11-20T08:09:53;6.80;99.90
12276;DHT22;6200;48.144;11.424;2022-11-20T08:12:20;6.80;99.90
12276;DHT22;6200;48.144;11.424;2022-11-20T08:15:05;6.80;99.90
12276;DHT22;6200;48.144;11.424;2022-11-20T08:17:31;6.80;99.90
12276;DHT22;6200;48.144;11.424;2022-11-20T08:19:57;6.80;99.90
12276;DHT22;6200;48.144;11.424;2022-11-20T08:22:22;6.80;99.90
12276;DHT22;6200;48.144;11.424;2022-11-20T08:24:48;6.90;99.90
12276;DHT22;6200;48.144;11.424;2022-11-20T08:27:14;6.90;99.90
12276;DHT22;6200;48.144;11.424;2022-11-20T08:29:39;7.00;99.90
12276;DHT22;6200;48.144;11.424;2022-11-20T08:32:05;7.00;99.90
12276;DHT22;6200;48.144;11.424;2022-11-20T08:34:31;7.00;99.90
12276;DHT22;6200;48.144;11.424;2022-11-20T08:36:56;7.10;99.90
12276;DHT22;6200;48.144;11.424;2022-11-20T08:39:22;7.10;99.90
12276;DHT22;6200;48.144;11.424;2022-11-20T08:41:47;7.10;99.90
12276;DHT22;6200;48.144;11.424;2022-11-20T08:44:13;7.20;99.90
12276;DHT22;6200;48.144;11.424;2022-11-20T08:46:40;7.20;99.90
12276;DHT22;6200;48.144;11.424;2022-11-20T08:49:10;7.30;99.90
12276;DHT22;6200;48.144;11.424;2022-11-20T08:51:37;7.30;99.90
12276;DHT22;6200;48.144;11.424;2022-11-20T08:54:03;7.40;99.90
12276;DHT22;6200;48.144;11.424;2022-11-20T08:56:29;7.50;99.90
12276;DHT22;6200;48.144;11.424;2022-11-20T08:58:55;7.50;99.90
12276;DHT22;6200;48.144;11.424;2022-11-20T09:01:22;7.50;99.90
12276;DHT22;6200;48.144;11.424;2022-11-20T09:03:48;7.50;99.90
12276;DHT22;6200;48.144;11.424;2022-11-20T09:06:14;7.60;99.90
12276;DHT22;6200;48.144;11.424;2022-11-20T09:08:40;7.60;99.90
12276;DHT22;6200;48.144;11.424;2022-11-20T09:11:06;7.60;99.90
12276;DHT22;6200;48.144;11.424;2022-11-20T09:13:33;7.60;99.90
12276;DHT22;6200;48.144;11.424;2022-11-20T09:16:05;7.70;99.90
12276;DHT22;6200;48.144;11.424;2022-11-20T09:18:32;7.80;99.90
12276;DHT22;6200;48.144;11.424;2022-11-20T09:21:02;7.80;99.90
12276;DHT22;6200;48.144;11.424;2022-11-20T09:23:31;7.80;99.90
12276;DHT22;6200;48.144;11.424;2022-11-20T09:25:57;7.80;99.90
12276;DHT22;6200;48.144;11.424;2022-11-20T09:28:25;7.90;99.90
12276;DHT22;6200;48.144;11.424;2022-11-20T09:30:51;7.90;99.90
12276;DHT22;6200;48.144;11.424;2022-11-20T09:33:17;8.00;99.90
12276;DHT22;6200;48.144;11.424;2022-11-20T09:35:43;8.00;99.90
12276;DHT22;6200;48.144;11.424;2022-11-20T09:38:09;8.00;99.90
12276;DHT22;6200;48.144;11.424;2022-11-20T09:40:38;8.00;99.90
12276;DHT22;6200;48.144;11.424;2022-11-20T09:43:22;8.10;99.90
12276;DHT22;6200;48.144;11.424;2022-11-20T09:46:12;8.00;99.90
12276;DHT22;6200;48.144;11.424;2022-11-20T09:54:19;8.40;99.90
12276;DHT22;6200;48.144;11.424;2022-11-20T09:56:54;8.50;99.90
12276;DHT22;6200;48.144;11.424;2022-11-20T10:01:48;8.70;99.90
12276;DHT22;6200;48.144;11.424;2022-11-20T10:04:19;8.90;99.90
12276;DHT22;6200;48.144;11.424;2022-11-20T10:07:17;9.00;99.90
12276;DHT22;6200;48.144;11.424;2022-11-20T10:09:52;9.20;99.90
12276;DHT22;6200;48.144;11.424;2022-11-20T10:15:34;9.30;99.90
12276;DHT22;6200;48.144;11.424;2022-11-20T10:19:18;9.30;99.90
12276;DHT22;6200;48.144;11.424;2022-11-20T10:24:29;9.30;99.90
12276;DHT22;6200;48.144;11.424;2022-11-20T10:30:11;9.50;99.90
12276;DHT22;6200;48.144;11.424;2022-11-20T10:32:39;9.50;99.90
12276;DHT22;6200;48.144;11.424;2022-11-20T10:37:44;9.60;99.90
12276;DHT22;6200;48.144;11.424;2022-11-20T10:48:35;9.60;99.90
12276;DHT22;6200;48.144;11.424;2022-11-20T10:50:44;9.50;99.90
12276;DHT22;6200;48.144;11.424;2022-11-20T10:56:12;9.40;99.90
12276;DHT22;6200;48.144;11.424;2022-11-20T11:02:31;9.50;99.90
12276;DHT22;6200;48.144;11.424;2022-11-20T11:04:58;9.60;99.90
12276;DHT22;6200;48.144;11.424;2022-11-20T11:07:35;9.50;99.90
12276;DHT22;6200;48.144;11.424;2022-11-20T11:10:01;9.50;99.90
12276;DHT22;6200;48.144;11.424;2022-11-20T11:12:28;9.50;99.90
12276;DHT22;6200;48.144;11.424;2022-11-20T11:14:56;9.50;99.90
12276;DHT22;6200;48.144;11.424;2022-11-20T11:17:27;9.50;99.90
12276;DHT22;6200;48.144;11.424;2022-11-20T11:20:17;9.50;99.90
12276;DHT22;6200;48.144;11.424;2022-11-20T11:28:04;9.60;99.90
12276;DHT22;6200;48.144;11.424;2022-11-20T11:30:40;9.50;99.90
12276;DHT22;6200;48.144;11.424;2022-11-20T11:33:10;9.40;99.90
12276;DHT22;6200;48.144;11.424;2022-11-20T11:35:45;9.40;99.90
12276;DHT22;6200;48.144;11.424;2022-11-20T11:38:18;9.40;99.90
12276;DHT22;6200;48.144;11.424;2022-11-20T11:40:45;9.30;99.90
12276;DHT22;6200;48.144;11.424;2022-11-20T11:43:20;9.30;99.90
12276;DHT22;6200;48.144;11.424;2022-11-20T11:49:11;9.20;99.90
12276;DHT22;6200;48.144;11.424;2022-11-20T11:54:24;9.20;99.90
12276;DHT22;6200;48.144;11.424;2022-11-20T11:56:51;9.20;99.90
12276;DHT22;6200;48.144;11.424;2022-11-20T11:59:52;9.20;99.90
12276;DHT22;6200;48.144;11.424;2022-11-20T12:02:47;9.20;99.90
12276;DHT22;6200;48.144;11.424;2022-11-20T12:07:51;8.90;99.90
12276;DHT22;6200;48.144;11.424;2022-11-20T12:12:51;8.60;99.90
12276;DHT22;6200;48.144;11.424;2022-11-20T12:15:28;8.70;99.90
12276;DHT22;6200;48.144;11.424;2022-11-20T12:17:55;8.60;99.90
12276;DHT22;6200;48.144;11.424;2022-11-20T12:20:24;8.50;99.90
12276;DHT22;6200;48.144;11.424;2022-11-20T12:23:00;8.40;99.90
12276;DHT22;6200;48.144;11.424;2022-11-20T12:25:33;8.30;99.90
12276;DHT22;6200;48.144;11.424;2022-11-20T12:30:28;8.20;99.90
12276;DHT22;6200;48.144;11.424;2022-11-20T12:47:55;8.10;99.90
12276;DHT22;6200;48.144;11.424;2022-11-20T12:59:09;8.10;99.90
12276;DHT22;6200;48.144;11.424;2022-11-20T13:01:50;8.10;99.90
12276;DHT22;6200;48.144;11.424;2022-11-20T13:06:48;8.00;99.90
12276;DHT22;6200;48.144;11.424;2022-11-20T13:09:16;8.00;99.90
12276;DHT22;6200;48.144;11.424;2022-11-20T13:11:51;8.00;99.90
12276;DHT22;6200;48.144;11.424;2022-11-20T13:14:30;8.00;99.90
12276;DHT22;6200;48.144;11.424;2022-11-20T13:17:04;7.90;99.90
12276;DHT22;6200;48.144;11.424;2022-11-20T13:19:33;7.90;99.90
12276;DHT22;6200;48.144;11.424;2022-11-20T13:21:59;5.50;99.90
12276;DHT22;6200;48.144;11.424;2022-11-20T13:24:28;7.80;99.90
12276;DHT22;6200;48.144;11.424;2022-11-20T13:29:26;7.70;99.90
12276;DHT22;6200;48.144;11.424;2022-11-20T13:32:12;7.70;99.90
12276;DHT22;6200;48.144;11.424;2022-11-20T13:34:39;7.70;99.90
12276;DHT22;6200;48.144;11.424;2022-11-20T13:37:05;7.70;99.90
12276;DHT22;6200;48.144;11.424;2022-11-20T13:39:35;7.80;99.90
12276;DHT22;6200;48.144;11.424;2022-11-20T13:44:38;7.80;99.90
12276;DHT22;6200;48.144;11.424;2022-11-20T13:47:21;7.70;99.90
12276;DHT22;6200;48.144;11.424;2022-11-20T13:49:48;7.80;99.90
12276;DHT22;6200;48.144;11.424;2022-11-20T13:55:21;7.80;99.90
12276;DHT22;6200;48.144;11.424;2022-11-20T13:58:20;7.70;99.90
12276;DHT22;6200;48.144;11.424;2022-11-20T14:00:55;7.80;99.90
12276;DHT22;6200;48.144;11.424;2022-11-20T14:03:23;7.80;99.90
12276;DHT22;6200;48.144;11.424;2022-11-20T14:05:55;7.70;99.90
12276;DHT22;6200;48.144;11.424;2022-11-20T14:08:36;7.80;99.90
12276;DHT22;6200;48.144;11.424;2022-11-20T14:11:24;7.80;99.90
12276;DHT22;6200;48.144;11.424;2022-11-20T14:13:57;7.80;99.90
12276;DHT22;6200;48.144;11.424;2022-11-20T14:16:24;7.80;99.90
12276;DHT22;6200;48.144;11.424;2022-11-20T14:18:50;7.90;99.90
12276;DHT22;6200;48.144;11.424;2022-11-20T14:21:26;7.80;99.90
12276;DHT22;6200;48.144;11.424;2022-11-20T14:24:05;7.90;99.90
12276;DHT22;6200;48.144;11.424;2022-11-20T14:26:31;7.90;99.90
12276;DHT22;6200;48.144;11.424;2022-11-20T14:28:58;7.90;99.90
12276;DHT22;6200;48.144;11.424;2022-11-20T14:31:25;7.90;99.90
12276;DHT22;6200;48.144;11.424;2022-11-20T14:33:55;7.90;99.90
12276;DHT22;6200;48.144;11.424;2022-11-20T14:36:22;7.80;99.90
12276;DHT22;6200;48.144;11.424;2022-11-20T14:38:49;7.80;99.90
12276;DHT22;6200;48.144;11.424;2022-11-20T14:41:18;7.80;99.90
12276;DHT22;6200;48.144;11.424;2022-11-20T14:43:56;7.70;99.90
12276;DHT22;6200;48.144;11.424;2022-11-20T14:46:23;7.70;99.90
12276;DHT22;6200;48.144;11.424;2022-11-20T14:48:57;7.70;99.90
12276;DHT22;6200;48.144;11.424;2022-11-20T14:51:39;7.60;99.90
12276;DHT22;6200;48.144;11.424;2022-11-20T14:54:19;8.70;99.90
12276;DHT22;6200;48.144;11.424;2022-11-20T14:57:03;7.60;99.90
12276;DHT22;6200;48.144;11.424;2022-11-20T14:59:31;7.60;99.90
12276;DHT22;6200;48.144;11.424;2022-11-20T15:02:06;7.50;99.90
12276;DHT22;6200;48.144;11.424;2022-11-20T15:04:34;7.50;99.90
12276;DHT22;6200;48.144;11.424;2022-11-20T15:07:09;7.50;99.90
12276;DHT22;6200;48.144;11.424;2022-11-20T15:09:35;7.50;99.90
12276;DHT22;6200;48.144;11.424;2022-11-20T15:12:02;7.50;99.90
12276;DHT22;6200;48.144;11.424;2022-11-20T15:14:30;7.50;99.90
12276;DHT22;6200;48.144;11.424;2022-11-20T15:16:56;7.50;99.90
12276;DHT22;6200;48.144;11.424;2022-11-20T15:19:25;7.50;99.90
12276;DHT22;6200;48.144;11.424;2022-11-20T15:21:52;7.50;99.90
12276;DHT22;6200;48.144;11.424;2022-11-20T15:24:18;7.50;99.90
12276;DHT22;6200;48.144;11.424;2022-11-20T15:26:44;7.40;99.90
12276;DHT22;6200;48.144;11.424;2022-11-20T15:29:15;7.40;99.90
12276;DHT22;6200;48.144;11.424;2022-11-20T15:31:44;7.40;99.90
12276;DHT22;6200;48.144;11.424;2022-11-20T15:34:15;7.40;99.90
12276;DHT22;6200;48.144;11.424;2022-11-20T15:36:41;7.40;99.90
12276;DHT22;6200;48.144;11.424;2022-11-20T15:39:08;7.40;99.90
12276;DHT22;6200;48.144;11.424;2022-11-20T15:41:35;7.40;99.90
12276;DHT22;6200;48.144;11.424;2022-11-20T15:44:01;7.30;99.90
12276;DHT22;6200;48.144;11.424;2022-11-20T15:46:29;7.30;99.90
12276;DHT22;6200;48.144;11.424;2022-11-20T15:48:56;7.30;99.90
12276;DHT22;6200;48.144;11.424;2022-11-20T15:51:30;7.20;99.90
12276;DHT22;6200;48.144;11.424;2022-11-20T15:53:57;7.20;99.90
12276;DHT22;6200;48.144;11.424;2022-11-20T15:56:23;7.20;99.90
12276;DHT22;6200;48.144;11.424;2022-11-20T15:58:49;7.20;99.90
12276;DHT22;6200;48.144;11.424;2022-11-20T16:01:20;7.10;99.90
12276;DHT22;6200;48.144;11.424;2022-11-20T16:03:46;7.10;99.90
12276;DHT22;6200;48.144;11.424;2022-11-20T16:06:12;7.10;99.90
12276;DHT22;6200;48.144;11.424;2022-11-20T16:08:38;7.10;99.90
12276;DHT22;6200;48.144;11.424;2022-11-20T16:11:04;7.10;99.90
12276;DHT22;6200;48.144;11.424;2022-11-20T16:13:31;7.00;99.90
12276;DHT22;6200;48.144;11.424;2022-11-20T16:16:25;7.00;99.90
12276;DHT22;6200;48.144;11.424;2022-11-20T16:18:53;6.90;99.90
12276;DHT22;6200;48.144;11.424;2022-11-20T16:21:18;6.80;99.90
12276;DHT22;6200;48.144;11.424;2022-11-20T16:23:44;6.80;99.90
12276;DHT22;6200;48.144;11.424;2022-11-20T16:26:15;6.80;99.90
12276;DHT22;6200;48.144;11.424;2022-11-20T16:28:42;6.70;99.90
12276;DHT22;6200;48.144;11.424;2022-11-20T16:31:18;6.60;99.90
12276;DHT22;6200;48.144;11.424;2022-11-20T16:33:49;6.60;99.90
12276;DHT22;6200;48.144;11.424;2022-11-20T16:36:16;6.50;99.90
12276;DHT22;6200;48.144;11.424;2022-11-20T16:38:41;6.50;99.90
12276;DHT22;6200;48.144;11.424;2022-11-20T16:41:08;6.50;99.90
12276;DHT22;6200;48.144;11.424;2022-11-20T16:43:44;6.50;99.90
12276;DHT22;6200;48.144;11.424;2022-11-20T16:46:11;6.50;99.90
12276;DHT22;6200;48.144;11.424;2022-11-20T16:48:36;6.50;99.90
12276;DHT22;6200;48.144;11.424;2022-11-20T16:51:02;6.40;99.90
12276;DHT22;6200;48.144;11.424;2022-11-20T16:53:28;6.40;99.90
12276;DHT22;6200;48.144;11.424;2022-11-20T16:55:53;6.30;99.90
12276;DHT22;6200;48.144;11.424;2022-11-20T16:58:19;6.30;99.90
12276;DHT22;6200;48.144;11.424;2022-11-20T17:00:44;6.30;99.90
12276;DHT22;6200;48.144;11.424;2022-11-20T17:03:10;6.30;99.90
12276;DHT22;6200;48.144;11.424;2022-11-20T17:05:36;6.20;99.90
12276;DHT22;6200;48.144;11.424;2022-11-20T17:08:02;6.20;99.90
12276;DHT22;6200;48.144;11.424;2022-11-20T17:10:28;6.10;99.90
12276;DHT22;6200;48.144;11.424;2022-11-20T17:12:53;6.10;99.90
12276;DHT22;6200;48.144;11.424;2022-11-20T17:15:19;6.00;99.90
12276;DHT22;6200;48.144;11.424;2022-11-20T17:17:44;6.00;99.90
12276;DHT22;6200;48.144;11.424;2022-11-20T17:20:10;6.00;99.90
12276;DHT22;6200;48.144;11.424;2022-11-20T17:22:37;5.90;99.90
12276;DHT22;6200;48.144;11.424;2022-11-20T17:25:02;5.90;99.90
12276;DHT22;6200;48.144;11.424;2022-11-20T17:27:28;5.90;99.90